Curryville, Missouri
Current Conditions -  °F | °C
As of 3:35 PM on Friday 24 Oct 2014 (Local Time) from KHAE Reporting Station
Clear Clear  
Wind Chill: 72°   Ceiling: Unl
Heat Index: 72°   Visibility: 10mi
Dew Point: 55°   Wind: 14mph
Humidity: 57%   Direction: 190°S
Pressure: 29.98"   Gusts: 18mph
Location:  39.35°N, 91.34°W
Report Text: KHAE 242035Z AUTO 19012G16KT 10SM CLR 22/13 A2998 RMK AO2
Loading
Personal Weather Stations






























Interactive Weather Map
Tropical Storm Tracking
New forecast layout! Learn more

10-Day Weather Forecast

Advertisements
Track Severe Weather on mobile